createdAt,value
2023-12-29T00:00:10.707Z,9.25
2023-12-29T00:02:46.474Z,9.32
2023-12-29T00:05:19.768Z,9.55
2023-12-29T00:07:53.089Z,10.07
2023-12-29T00:10:26.244Z,9.82
2023-12-29T00:12:59.450Z,10.10
2023-12-29T00:15:33.008Z,9.65
2023-12-29T00:18:08.104Z,9.20
2023-12-29T00:20:42.168Z,9.30
2023-12-29T00:23:15.736Z,9.48
2023-12-29T00:25:49.070Z,9.35
2023-12-29T00:28:22.225Z,10.02
2023-12-29T00:31:01.324Z,8.05
2023-12-29T00:33:38.070Z,8.82
2023-12-29T00:36:16.998Z,9.10
2023-12-29T00:38:50.150Z,11.57
2023-12-29T00:41:24.739Z,9.40
2023-12-29T00:43:57.932Z,11.00
2023-12-29T00:46:31.102Z,8.65
2023-12-29T00:49:05.772Z,9.00
2023-12-29T00:51:42.267Z,10.55
2023-12-29T00:54:15.646Z,10.27
2023-12-29T00:56:51.048Z,9.63
2023-12-29T00:59:24.180Z,9.65
2023-12-29T01:01:57.446Z,8.40
2023-12-29T01:04:32.142Z,8.52
2023-12-29T01:07:05.692Z,9.75
2023-12-29T01:09:41.342Z,8.50
2023-12-29T01:12:16.184Z,9.00
2023-12-29T01:14:49.357Z,10.00
2023-12-29T01:17:23.378Z,9.18
2023-12-29T01:19:57.992Z,8.63
2023-12-29T01:22:31.246Z,8.35
2023-12-29T01:25:04.834Z,9.60
2023-12-29T01:27:38.335Z,9.10
2023-12-29T01:30:12.019Z,8.75
2023-12-29T01:35:20.488Z,8.55
2023-12-29T01:37:53.794Z,9.00
2023-12-29T01:40:26.961Z,9.18
2023-12-29T01:43:00.222Z,8.63
2023-12-29T01:45:35.797Z,7.50
2023-12-29T01:48:13.666Z,9.98
2023-12-29T01:50:49.295Z,9.18
2023-12-29T01:53:31.081Z,8.52
2023-12-29T01:56:12.862Z,8.23
2023-12-29T01:58:46.300Z,8.90
2023-12-29T02:01:20.711Z,8.77
2023-12-29T02:03:54.230Z,9.48
2023-12-29T02:06:29.806Z,9.23
2023-12-29T02:09:05.952Z,8.38
2023-12-29T02:11:39.204Z,9.38
2023-12-29T02:14:12.984Z,8.52
2023-12-29T02:19:40.810Z,10.43
2023-12-29T02:22:16.364Z,8.13
2023-12-29T02:24:51.557Z,8.57
2023-12-29T02:27:45.601Z,7.10
2023-12-29T02:30:24.793Z,8.20
2023-12-29T02:33:03.176Z,8.90
2023-12-29T02:35:43.273Z,9.70
2023-12-29T02:38:16.904Z,10.00
2023-12-29T02:40:51.734Z,8.20
2023-12-29T02:43:24.971Z,7.32
2023-12-29T02:45:58.198Z,8.73
2023-12-29T02:48:32.355Z,8.77
2023-12-29T02:51:05.799Z,9.38
2023-12-29T02:53:38.934Z,8.40
2023-12-29T02:56:13.374Z,8.75
2023-12-29T02:58:49.188Z,9.70
2023-12-29T03:01:22.494Z,9.35
2023-12-29T03:03:55.861Z,7.30
2023-12-29T03:06:29.070Z,7.93
2023-12-29T03:09:02.269Z,8.35
2023-12-29T03:11:36.763Z,8.77
2023-12-29T03:14:10.011Z,8.50
2023-12-29T03:16:43.173Z,7.05
2023-12-29T03:19:16.404Z,7.82
2023-12-29T03:21:49.641Z,8.50
2023-12-29T03:24:22.986Z,7.10
2023-12-29T03:26:57.707Z,7.72
2023-12-29T03:29:30.885Z,8.43
2023-12-29T03:32:04.128Z,10.60
2023-12-29T03:34:37.504Z,7.78
2023-12-29T03:37:11.057Z,8.45
2023-12-29T03:39:44.305Z,8.02
2023-12-29T03:42:19.885Z,9.38
2023-12-29T03:44:53.067Z,7.53
2023-12-29T03:47:26.358Z,7.65
2023-12-29T03:49:59.644Z,7.95
2023-12-29T03:52:32.974Z,7.93
2023-12-29T03:55:07.361Z,7.22
2023-12-29T03:57:42.005Z,7.82
2023-12-29T04:00:16.938Z,8.30
2023-12-29T04:02:50.365Z,6.75
2023-12-29T04:05:23.544Z,9.30
2023-12-29T04:07:56.837Z,6.95
2023-12-29T04:10:30.074Z,6.55
2023-12-29T04:13:06.113Z,8.77
2023-12-29T04:15:39.365Z,9.23
2023-12-29T04:18:12.722Z,6.68
2023-12-29T04:20:46.887Z,8.63
2023-12-29T04:23:20.256Z,8.00
2023-12-29T04:25:53.511Z,8.75
2023-12-29T04:28:28.071Z,6.80
2023-12-29T04:31:02.848Z,8.25
2023-12-29T04:33:36.214Z,8.90
2023-12-29T04:36:09.665Z,9.77
2023-12-29T04:38:45.993Z,7.88
2023-12-29T04:41:19.917Z,8.32
2023-12-29T04:43:54.788Z,8.27
2023-12-29T04:46:28.050Z,6.72
2023-12-29T04:49:01.489Z,7.60
2023-12-29T04:51:34.781Z,7.75
2023-12-29T04:54:08.094Z,7.88
2023-12-29T04:56:41.579Z,7.03
2023-12-29T04:59:16.472Z,7.75
2023-12-29T05:01:53.504Z,7.53
2023-12-29T05:04:26.734Z,6.78
2023-12-29T05:07:00.290Z,8.57
2023-12-29T05:09:33.645Z,9.38
2023-12-29T05:12:07.364Z,8.88
2023-12-29T05:14:42.010Z,6.88
2023-12-29T05:17:15.768Z,7.80
2023-12-29T05:19:49.028Z,8.15
2023-12-29T05:22:22.396Z,8.30
2023-12-29T05:24:58.927Z,8.23
2023-12-29T05:27:33.077Z,8.45
2023-12-29T05:30:09.362Z,7.45
2023-12-29T05:32:42.760Z,8.68
2023-12-29T05:35:16.106Z,6.47
2023-12-29T05:37:49.378Z,7.50
2023-12-29T05:40:22.656Z,6.75
2023-12-29T05:42:55.947Z,7.25
2023-12-29T05:45:30.576Z,6.70
2023-12-29T05:48:03.985Z,7.68
2023-12-29T05:50:37.417Z,8.23
2023-12-29T05:53:10.657Z,7.55
2023-12-29T05:55:45.958Z,8.40
2023-12-29T05:58:19.262Z,7.53
2023-12-29T06:00:53.932Z,7.72
2023-12-29T06:03:27.344Z,7.15
2023-12-29T06:06:00.676Z,8.35
2023-12-29T06:08:33.905Z,8.10
2023-12-29T06:11:07.599Z,6.00
2023-12-29T06:13:40.824Z,9.75
2023-12-29T06:16:21.183Z,8.20
2023-12-29T06:18:54.646Z,7.93
2023-12-29T06:21:27.950Z,8.23
2023-12-29T06:24:01.219Z,7.72
2023-12-29T06:26:34.485Z,7.93
2023-12-29T06:29:07.685Z,7.95
2023-12-29T06:31:44.721Z,6.45
2023-12-29T06:34:18.126Z,7.55
2023-12-29T06:36:51.428Z,5.97
2023-12-29T06:39:24.869Z,7.00
2023-12-29T06:41:58.142Z,8.43
2023-12-29T06:44:30.356Z,8.40
2023-12-29T06:47:06.854Z,7.07
2023-12-29T06:49:42.003Z,9.15
2023-12-29T06:52:15.570Z,6.35
2023-12-29T06:54:48.847Z,9.20
2023-12-29T06:57:22.155Z,8.02
2023-12-29T06:59:55.462Z,6.82
2023-12-29T07:02:30.047Z,6.57
2023-12-29T07:05:03.287Z,6.32
2023-12-29T07:07:37.213Z,6.57
2023-12-29T07:10:14.205Z,7.13
2023-12-29T07:12:47.660Z,7.78
2023-12-29T07:15:21.139Z,7.78
2023-12-29T07:17:56.131Z,7.00
2023-12-29T07:20:29.655Z,6.30
2023-12-29T07:23:03.178Z,6.47
2023-12-29T07:25:36.456Z,8.15
2023-12-29T07:28:09.735Z,6.05
2023-12-29T07:30:43.132Z,7.45
2023-12-29T07:33:17.880Z,7.32
2023-12-29T07:35:51.112Z,8.73
2023-12-29T07:38:24.435Z,8.55
2023-12-29T07:40:57.666Z,7.20
2023-12-29T07:43:30.876Z,6.10
2023-12-29T07:46:04.355Z,6.88
2023-12-29T07:48:39.385Z,6.95
2023-12-29T07:51:12.738Z,6.95
2023-12-29T07:53:46.006Z,6.10
2023-12-29T07:56:19.153Z,5.22
2023-12-29T07:58:52.310Z,7.32
2023-12-29T08:01:25.560Z,7.60
2023-12-29T08:04:00.414Z,6.57
2023-12-29T08:06:33.803Z,6.95
2023-12-29T08:09:08.472Z,7.18
2023-12-29T08:11:44.042Z,7.22
2023-12-29T08:14:17.395Z,7.38
2023-12-29T08:16:50.608Z,7.00
2023-12-29T08:19:25.305Z,6.57
2023-12-29T08:21:58.713Z,7.47
2023-12-29T08:24:31.875Z,7.65
2023-12-29T08:27:05.605Z,6.63
2023-12-29T08:32:11.900Z,6.05
2023-12-29T08:34:46.437Z,6.45
2023-12-29T08:37:21.686Z,6.82
2023-12-29T08:39:55.632Z,5.45
2023-12-29T08:42:28.913Z,6.78
2023-12-29T08:45:02.214Z,7.75
2023-12-29T08:47:35.781Z,6.00
2023-12-29T08:50:11.069Z,6.43
2023-12-29T08:52:44.203Z,5.72
2023-12-29T08:55:17.486Z,5.85
2023-12-29T08:57:50.722Z,6.93
2023-12-29T09:00:23.935Z,7.80
2023-12-29T09:02:57.107Z,6.38
2023-12-29T09:05:31.613Z,7.10
2023-12-29T09:08:05.782Z,7.15
2023-12-29T09:10:39.761Z,7.10
2023-12-29T09:13:12.990Z,5.80
2023-12-29T09:15:46.435Z,4.88
2023-12-29T09:18:19.660Z,7.15
2023-12-29T09:20:54.491Z,5.85
2023-12-29T09:23:27.742Z,6.72
2023-12-29T09:26:01.076Z,7.75
2023-12-29T09:28:35.293Z,7.35
2023-12-29T09:31:09.316Z,5.15
2023-12-29T09:33:42.889Z,5.93
2023-12-29T09:36:17.769Z,5.93
2023-12-29T09:38:50.976Z,7.70
2023-12-29T09:41:26.492Z,5.47
2023-12-29T09:44:01.311Z,7.15
2023-12-29T09:46:35.393Z,6.18
2023-12-29T09:49:10.789Z,7.63
2023-12-29T09:51:46.431Z,6.35
2023-12-29T09:54:20.121Z,6.38
2023-12-29T09:56:53.638Z,6.30
2023-12-29T09:59:28.909Z,6.75
2023-12-29T10:02:03.605Z,5.85
2023-12-29T10:04:37.631Z,6.65
2023-12-29T10:07:18.820Z,8.52
2023-12-29T10:09:56.606Z,6.85
2023-12-29T10:12:30.727Z,5.40
2023-12-29T10:15:10.614Z,6.80
2023-12-29T10:17:54.384Z,6.30
2023-12-29T10:20:40.230Z,6.25
2023-12-29T10:23:19.552Z,6.55
2023-12-29T10:25:53.017Z,7.22
2023-12-29T10:28:26.223Z,7.90
2023-12-29T10:30:59.704Z,6.40
2023-12-29T10:33:33.789Z,7.72
2023-12-29T10:36:08.733Z,6.95
2023-12-29T10:38:43.853Z,7.03
2023-12-29T10:41:18.183Z,6.32
2023-12-29T10:43:53.349Z,8.00
2023-12-29T10:46:27.864Z,5.88
2023-12-29T10:49:09.950Z,6.28
2023-12-29T10:51:43.238Z,7.85
2023-12-29T10:54:24.535Z,7.05
2023-12-29T10:57:04.787Z,6.20
2023-12-29T10:59:37.900Z,6.50
2023-12-29T11:02:16.162Z,5.35
2023-12-29T11:04:51.661Z,6.32
2023-12-29T11:07:34.880Z,7.28
2023-12-29T11:10:11.242Z,7.93
2023-12-29T11:12:45.337Z,7.10
2023-12-29T11:17:53.610Z,6.82
2023-12-29T11:20:27.716Z,6.35
2023-12-29T11:23:02.705Z,5.93
2023-12-29T11:25:38.000Z,7.63
2023-12-29T11:28:13.085Z,6.95
2023-12-29T11:30:46.484Z,6.22
2023-12-29T11:33:24.164Z,6.88
2023-12-29T11:36:02.315Z,6.05
2023-12-29T11:38:50.455Z,5.32
2023-12-29T11:41:35.565Z,7.47
2023-12-29T11:44:08.852Z,5.30
2023-12-29T11:46:44.699Z,6.43
2023-12-29T11:49:18.050Z,6.00
2023-12-29T11:51:52.410Z,6.22
2023-12-29T11:54:27.059Z,7.72
2023-12-29T11:57:00.664Z,5.80
2023-12-29T11:59:34.151Z,5.72
2023-12-29T12:02:08.471Z,5.25
2023-12-29T12:04:42.827Z,6.68
2023-12-29T12:07:39.385Z,5.47
2023-12-29T12:10:33.070Z,5.28
2023-12-29T12:13:08.002Z,6.65
2023-12-29T12:15:42.459Z,5.32
2023-12-29T12:18:15.744Z,5.60
2023-12-29T12:20:53.327Z,6.63
2023-12-29T12:23:28.972Z,5.10
2023-12-29T12:26:04.668Z,5.57
2023-12-29T12:28:44.946Z,6.43
2023-12-29T12:31:19.350Z,5.93
2023-12-29T12:33:56.682Z,5.43
2023-12-29T12:36:30.035Z,5.68
2023-12-29T12:39:04.083Z,5.95
2023-12-29T12:41:37.484Z,6.88
2023-12-29T12:44:13.424Z,5.75
2023-12-29T12:46:53.147Z,5.72
2023-12-29T12:49:26.403Z,6.25
2023-12-29T12:51:59.779Z,5.28
2023-12-29T12:54:34.855Z,5.97
2023-12-29T12:57:09.257Z,5.05
2023-12-29T12:59:44.235Z,4.95
2023-12-29T13:02:18.011Z,5.93
2023-12-29T13:07:25.946Z,4.38
2023-12-29T13:09:59.535Z,5.43
2023-12-29T13:12:32.760Z,5.25
2023-12-29T13:15:11.297Z,4.43
2023-12-29T13:17:52.745Z,4.68
2023-12-29T13:20:25.947Z,5.78
2023-12-29T13:22:59.981Z,4.60
2023-12-29T13:25:33.932Z,5.07
2023-12-29T13:30:42.959Z,4.50
2023-12-29T13:33:22.212Z,5.25
2023-12-29T13:36:02.313Z,4.57
2023-12-29T13:38:48.370Z,5.15
2023-12-29T13:41:22.610Z,5.22
2023-12-29T13:43:58.013Z,6.18
2023-12-29T13:46:33.196Z,5.43
2023-12-29T13:49:08.074Z,5.15
2023-12-29T13:51:41.355Z,5.60
2023-12-29T13:54:15.469Z,4.43
2023-12-29T13:56:55.484Z,4.55
2023-12-29T13:59:33.291Z,4.65
2023-12-29T14:02:31.146Z,4.85
2023-12-29T14:05:16.853Z,4.88
2023-12-29T14:07:56.003Z,4.68
2023-12-29T14:10:31.980Z,4.68
2023-12-29T14:13:09.482Z,5.43
2023-12-29T14:15:43.530Z,5.18
2023-12-29T14:18:33.994Z,4.82
2023-12-29T14:21:22.684Z,5.60
2023-12-29T14:24:03.620Z,5.22
2023-12-29T14:26:36.802Z,4.80
2023-12-29T14:29:11.300Z,5.78
2023-12-29T14:31:45.960Z,4.90
2023-12-29T14:34:21.295Z,4.32
2023-12-29T14:36:54.814Z,6.25
2023-12-29T14:39:28.014Z,4.78
2023-12-29T14:42:01.702Z,4.85
2023-12-29T14:44:36.008Z,4.40
2023-12-29T14:47:09.169Z,4.82
2023-12-29T14:49:43.749Z,4.65
2023-12-29T14:52:16.946Z,4.35
2023-12-29T14:54:50.584Z,4.55
2023-12-29T14:57:23.977Z,4.57
2023-12-29T14:59:57.146Z,4.78
2023-12-29T15:02:30.361Z,4.30
2023-12-29T15:05:05.202Z,4.25
2023-12-29T15:07:38.433Z,4.55
2023-12-29T15:10:11.718Z,5.80
2023-12-29T15:12:44.981Z,6.32
2023-12-29T15:15:18.182Z,4.82
2023-12-29T15:17:51.486Z,4.40
2023-12-29T15:20:26.005Z,5.13
2023-12-29T15:23:00.320Z,4.57
2023-12-29T15:25:33.600Z,5.47
2023-12-29T15:28:06.897Z,5.90
2023-12-29T15:30:40.990Z,5.60
2023-12-29T15:33:14.623Z,6.13
2023-12-29T15:35:49.265Z,4.93
2023-12-29T15:38:22.717Z,5.38
2023-12-29T15:40:55.849Z,4.80
2023-12-29T15:43:30.667Z,4.97
2023-12-29T15:46:04.500Z,5.13
2023-12-29T15:48:37.899Z,5.53
2023-12-29T15:51:13.445Z,5.20
2023-12-29T15:53:46.722Z,5.03
2023-12-29T15:56:20.759Z,5.70
2023-12-29T15:58:53.918Z,4.82
2023-12-29T16:01:29.431Z,4.40
2023-12-29T16:04:03.616Z,5.95
2023-12-29T16:09:12.960Z,5.00
2023-12-29T16:11:46.171Z,5.57
2023-12-29T16:14:19.388Z,4.63
2023-12-29T16:16:52.661Z,5.28
2023-12-29T16:19:27.211Z,4.43
2023-12-29T16:22:01.825Z,5.05
2023-12-29T16:24:34.985Z,5.53
2023-12-29T16:27:08.420Z,4.82
2023-12-29T16:29:43.349Z,5.72
2023-12-29T16:32:24.393Z,6.45
2023-12-29T16:34:57.796Z,5.70
2023-12-29T16:37:39.073Z,5.03
2023-12-29T16:40:13.029Z,4.63
2023-12-29T16:42:46.303Z,6.13
2023-12-29T16:45:19.527Z,4.97
2023-12-29T16:47:52.813Z,5.07
2023-12-29T16:50:25.993Z,4.78
2023-12-29T16:53:00.757Z,6.80
2023-12-29T16:55:34.197Z,5.97
2023-12-29T16:58:07.451Z,5.70
2023-12-29T17:00:42.055Z,5.55
2023-12-29T17:03:15.759Z,5.57
2023-12-29T17:05:49.297Z,4.82
2023-12-29T17:08:24.432Z,5.82
2023-12-29T17:10:57.686Z,5.40
2023-12-29T17:13:33.591Z,5.45
2023-12-29T17:16:07.798Z,5.63
2023-12-29T17:18:41.369Z,5.53
2023-12-29T17:21:14.650Z,5.35
2023-12-29T17:23:49.173Z,4.55
2023-12-29T17:26:22.350Z,6.00
2023-12-29T17:28:56.138Z,5.07
2023-12-29T17:34:02.674Z,4.82
2023-12-29T17:36:36.154Z,4.57
2023-12-29T17:39:10.670Z,5.70
2023-12-29T17:41:44.899Z,5.15
2023-12-29T17:44:18.054Z,6.22
2023-12-29T17:46:53.062Z,5.88
2023-12-29T17:49:29.507Z,5.55
2023-12-29T17:52:02.917Z,4.97
2023-12-29T17:54:38.902Z,6.38
2023-12-29T17:57:12.287Z,6.05
2023-12-29T17:59:45.453Z,5.57
2023-12-29T18:02:18.959Z,5.07
2023-12-29T18:04:52.080Z,6.00
2023-12-29T18:07:25.291Z,4.20
2023-12-29T18:09:59.888Z,7.40
2023-12-29T18:12:33.034Z,4.43
2023-12-29T18:15:07.002Z,5.15
2023-12-29T18:17:41.701Z,4.65
2023-12-29T18:20:17.769Z,4.38
2023-12-29T18:22:51.170Z,5.43
2023-12-29T18:25:25.782Z,5.25
2023-12-29T18:28:01.389Z,6.40
2023-12-29T18:30:34.702Z,5.90
2023-12-29T18:33:10.515Z,5.65
2023-12-29T18:35:43.817Z,5.00
2023-12-29T18:38:17.503Z,4.88
2023-12-29T18:43:25.284Z,5.85
2023-12-29T18:45:58.460Z,5.95
2023-12-29T18:48:31.751Z,5.80
2023-12-29T18:51:05.469Z,5.95
2023-12-29T18:53:38.647Z,6.60
2023-12-29T18:56:15.929Z,5.75
2023-12-29T18:58:49.085Z,5.25
2023-12-29T19:01:22.286Z,6.80
2023-12-29T19:03:55.671Z,6.38
2023-12-29T19:06:29.030Z,8.25
2023-12-29T19:09:02.198Z,4.70
2023-12-29T19:11:38.249Z,5.65
2023-12-29T19:14:12.119Z,6.00
2023-12-29T19:19:18.642Z,6.68
2023-12-29T19:21:53.247Z,5.00
2023-12-29T19:24:27.470Z,6.00
2023-12-29T19:27:02.609Z,5.35
2023-12-29T19:29:36.024Z,5.72
2023-12-29T19:32:09.710Z,6.35
2023-12-29T19:37:17.480Z,5.82
2023-12-29T19:39:50.779Z,5.60
2023-12-29T19:42:25.323Z,5.35
2023-12-29T19:45:06.380Z,5.50
2023-12-29T19:47:46.805Z,6.43
2023-12-29T19:50:20.749Z,6.93
2023-12-29T19:52:53.942Z,5.35
2023-12-29T19:55:27.137Z,6.50
2023-12-29T19:58:02.714Z,5.20
2023-12-29T20:00:35.994Z,6.57
2023-12-29T20:03:09.403Z,5.85
2023-12-29T20:05:43.271Z,4.55
2023-12-29T20:10:49.887Z,5.00
2023-12-29T20:13:24.511Z,6.45
2023-12-29T20:15:57.699Z,5.93
2023-12-29T20:18:30.889Z,4.68
2023-12-29T20:21:04.557Z,5.15
2023-12-29T20:23:38.140Z,5.55
2023-12-29T20:26:11.423Z,5.32
2023-12-29T20:28:45.988Z,4.65
2023-12-29T20:31:24.593Z,6.63
2023-12-29T20:33:58.485Z,6.15
2023-12-29T20:36:31.994Z,5.45
2023-12-29T20:39:05.207Z,7.75
2023-12-29T20:41:38.408Z,5.20
2023-12-29T20:44:12.941Z,5.15
2023-12-29T20:46:46.134Z,5.88
2023-12-29T20:49:19.467Z,5.55
2023-12-29T20:51:52.671Z,5.22
2023-12-29T20:54:25.954Z,4.95
2023-12-29T20:56:59.289Z,5.10
2023-12-29T20:59:37.099Z,6.35
2023-12-29T21:02:11.855Z,5.88
2023-12-29T21:04:45.163Z,5.20
2023-12-29T21:07:19.768Z,7.28
2023-12-29T21:09:59.897Z,5.55
2023-12-29T21:12:33.943Z,5.05
2023-12-29T21:15:09.411Z,6.68
2023-12-29T21:17:42.614Z,4.85
2023-12-29T21:20:16.121Z,6.30
2023-12-29T21:22:50.523Z,5.28
2023-12-29T21:25:24.019Z,5.20
2023-12-29T21:27:57.781Z,6.63
2023-12-29T21:30:32.544Z,4.88
2023-12-29T21:33:06.107Z,5.18
2023-12-29T21:35:39.358Z,6.40
2023-12-29T21:38:12.538Z,4.88
2023-12-29T21:40:45.710Z,5.68
2023-12-29T21:43:19.245Z,5.05
2023-12-29T21:45:53.822Z,5.72
2023-12-29T21:48:27.042Z,5.85
2023-12-29T21:51:00.200Z,5.75
2023-12-29T21:53:33.503Z,6.20
2023-12-29T21:56:06.885Z,4.90
2023-12-29T21:58:40.382Z,5.28
2023-12-29T22:01:39.314Z,4.75
2023-12-29T22:04:13.805Z,5.20
2023-12-29T22:06:48.093Z,5.40
2023-12-29T22:09:21.681Z,5.88
2023-12-29T22:11:55.243Z,5.85
2023-12-29T22:14:28.407Z,6.22
2023-12-29T22:17:02.934Z,5.72
2023-12-29T22:19:36.140Z,5.55
2023-12-29T22:22:09.840Z,4.18
2023-12-29T22:24:43.550Z,5.07
2023-12-29T22:27:16.777Z,4.57
2023-12-29T22:29:50.111Z,6.82
2023-12-29T22:32:24.948Z,4.68
2023-12-29T22:34:58.168Z,4.78
2023-12-29T22:37:32.365Z,4.90
2023-12-29T22:40:06.517Z,6.28
2023-12-29T22:42:42.032Z,4.57
2023-12-29T22:45:15.229Z,4.15
2023-12-29T22:47:49.799Z,4.45
2023-12-29T22:50:22.960Z,5.55
2023-12-29T22:52:56.138Z,4.38
2023-12-29T22:55:29.498Z,4.13
2023-12-29T22:58:02.771Z,5.22
2023-12-29T23:00:37.582Z,5.07
2023-12-29T23:03:12.336Z,4.85
2023-12-29T23:05:45.633Z,6.00
2023-12-29T23:08:19.188Z,4.65
2023-12-29T23:10:52.369Z,5.70
2023-12-29T23:13:26.358Z,4.65
2023-12-29T23:15:59.591Z,4.90
2023-12-29T23:18:34.197Z,5.15
2023-12-29T23:21:07.928Z,5.40
2023-12-29T23:23:41.048Z,4.40
2023-12-29T23:26:14.231Z,5.65
2023-12-29T23:28:47.565Z,5.70
2023-12-29T23:31:20.828Z,4.80
2023-12-29T23:33:55.529Z,5.10
2023-12-29T23:36:28.736Z,4.38
2023-12-29T23:39:01.900Z,4.20
2023-12-29T23:41:35.036Z,4.20
2023-12-29T23:44:08.618Z,4.68
2023-12-29T23:46:42.073Z,4.40
2023-12-29T23:49:16.813Z,4.97
2023-12-29T23:51:50.011Z,4.32
2023-12-29T23:54:24.883Z,4.60
2023-12-29T23:56:58.067Z,5.80
2023-12-29T23:59:31.294Z,4.72
